Terminal Aerodrome Forecast
Issued by NWS

Home | Current Version | Previous Version | Text Only | Print | Product List | Glossary On
Versions: 1 2 3 4 5 6 7 8 9 10 11 12 13 14 15 16 17 18 19 20 21 22 23 24 25 26 27 28
432
FTUS43 KDVN 221138
TAFCID
TAF
KCID 221138Z 2212/2312 16010KT 6SM -RA BR VCTS SCT030CB BKN100
     FM221230 15008KT P6SM FEW030 BKN100
     FM221400 22008KT P6SM SCT040 BKN100
     FM221700 32008KT P6SM BKN080
     FM222100 01006KT P6SM SCT080
     FM230600 VRB03KT 3SM BR SCT060=

USA.gov is the U.S. government's official web portal to all federal, state and local government web resources and services.